createdAt,value
2018-05-06T00:01:05.529Z,10.00
2018-05-06T00:03:34.854Z,8.80
2018-05-06T00:06:04.495Z,11.57
2018-05-06T00:08:33.867Z,10.60
2018-05-06T00:11:03.610Z,10.53
2018-05-06T00:13:33.245Z,10.43
2018-05-06T00:16:02.641Z,11.53
2018-05-06T00:18:32.037Z,8.17
2018-05-06T00:21:01.684Z,9.30
2018-05-06T00:23:31.369Z,8.63
2018-05-06T00:26:01.038Z,11.50
2018-05-06T00:28:30.671Z,10.63
2018-05-06T00:31:00.295Z,11.67
2018-05-06T00:33:29.948Z,10.70
2018-05-06T00:35:59.813Z,9.33
2018-05-06T00:38:29.452Z,10.43
2018-05-06T00:40:59.098Z,11.00
2018-05-06T00:43:28.718Z,9.07
2018-05-06T00:45:58.404Z,9.30
2018-05-06T00:48:28.073Z,9.60
2018-05-06T00:50:57.717Z,10.20
2018-05-06T00:53:27.344Z,10.70
2018-05-06T00:55:56.977Z,13.00
2018-05-06T00:58:26.605Z,11.97
2018-05-06T01:00:56.284Z,14.07
2018-05-06T01:03:25.908Z,11.23
2018-05-06T01:05:55.304Z,12.93
2018-05-06T01:08:24.646Z,14.17
2018-05-06T01:10:54.032Z,14.73
2018-05-06T01:13:23.709Z,14.57
2018-05-06T01:15:53.325Z,17.93
2018-05-06T01:18:22.955Z,14.90
2018-05-06T01:20:52.575Z,18.90
2018-05-06T01:23:22.214Z,18.40
2018-05-06T01:25:51.887Z,14.40
2018-05-06T01:28:21.379Z,15.77
2018-05-06T01:30:51.009Z,18.60
2018-05-06T01:33:20.652Z,16.30
2018-05-06T01:35:50.282Z,20.90
2018-05-06T01:38:19.957Z,17.27
2018-05-06T01:40:49.595Z,20.47
2018-05-06T01:43:19.543Z,18.67
2018-05-06T01:45:49.183Z,17.67
2018-05-06T01:48:18.827Z,16.77
2018-05-06T01:50:48.504Z,20.27
2018-05-06T01:53:18.135Z,16.77
2018-05-06T01:55:47.551Z,19.33
2018-05-06T01:58:17.183Z,15.90
2018-05-06T02:00:46.821Z,17.60
2018-05-06T02:03:16.494Z,17.70
2018-05-06T02:05:46.117Z,18.07
2018-05-06T02:08:15.752Z,15.97
2018-05-06T02:10:45.396Z,17.97
2018-05-06T02:13:15.023Z,16.50
2018-05-06T02:15:44.699Z,17.90
2018-05-06T02:18:14.465Z,16.70
2018-05-06T02:20:44.082Z,16.93
2018-05-06T02:23:13.717Z,20.07
2018-05-06T02:25:43.580Z,15.77
2018-05-06T02:28:13.248Z,15.37
2018-05-06T02:30:42.933Z,17.00
2018-05-06T02:33:12.567Z,15.73
2018-05-06T02:35:42.346Z,15.50
2018-05-06T02:38:12.020Z,18.10
2018-05-06T02:40:41.422Z,19.20
2018-05-06T02:43:11.061Z,17.93
2018-05-06T02:45:41.447Z,17.37
2018-05-06T02:48:11.073Z,14.10
2018-05-06T02:50:40.703Z,15.67
2018-05-06T02:53:10.370Z,18.20
2018-05-06T02:55:39.993Z,15.37
2018-05-06T02:58:09.642Z,14.07
2018-05-06T03:00:39.259Z,12.40
2018-05-06T03:03:08.714Z,13.43
2018-05-06T03:05:38.322Z,15.50
2018-05-06T03:08:07.942Z,13.97
2018-05-06T03:10:38.430Z,16.40
2018-05-06T03:13:08.051Z,15.70
2018-05-06T03:15:37.666Z,14.00
2018-05-06T03:18:07.408Z,13.67
2018-05-06T03:20:37.026Z,14.70
2018-05-06T03:23:06.722Z,13.43
2018-05-06T03:25:36.351Z,13.30
2018-05-06T03:28:05.982Z,11.33
2018-05-06T03:30:35.647Z,16.43
2018-05-06T03:33:05.276Z,13.80
2018-05-06T03:35:34.912Z,15.30
2018-05-06T03:38:04.538Z,12.70
2018-05-06T03:40:34.177Z,15.13
2018-05-06T03:43:03.630Z,16.27
2018-05-06T03:45:33.290Z,11.03
2018-05-06T03:48:03.024Z,16.80
2018-05-06T03:50:32.666Z,12.43
2018-05-06T03:53:02.309Z,13.07
2018-05-06T03:55:31.979Z,10.97
2018-05-06T03:58:12.543Z,9.80
2018-05-06T04:00:46.172Z,9.63
2018-05-06T04:03:15.620Z,11.20
2018-05-06T04:05:45.090Z,10.97
2018-05-06T04:08:14.907Z,15.20
2018-05-06T04:10:44.558Z,11.07
2018-05-06T04:13:14.250Z,15.03
2018-05-06T04:15:43.886Z,9.87
2018-05-06T04:18:13.506Z,8.23
2018-05-06T04:20:43.122Z,11.50
2018-05-06T04:23:12.750Z,11.70
2018-05-06T04:25:42.418Z,11.33
2018-05-06T04:28:12.070Z,10.30
2018-05-06T04:30:41.478Z,10.07
2018-05-06T04:33:11.115Z,10.30
2018-05-06T04:35:40.458Z,8.83
2018-05-06T04:38:10.134Z,9.50
2018-05-06T04:40:39.751Z,9.93
2018-05-06T04:43:09.383Z,8.83
2018-05-06T04:45:39.007Z,9.37
2018-05-06T04:48:08.618Z,8.57
2018-05-06T04:50:38.287Z,9.10
2018-05-06T04:53:07.908Z,9.53
2018-05-06T04:55:37.299Z,8.43
2018-05-06T04:58:06.936Z,8.27
2018-05-06T05:00:36.572Z,6.37
2018-05-06T05:03:06.244Z,8.93
2018-05-06T05:05:36.387Z,8.93
2018-05-06T05:08:06.045Z,8.20
2018-05-06T05:10:35.682Z,8.93
2018-05-06T05:13:05.297Z,8.97
2018-05-06T05:15:34.972Z,11.10
2018-05-06T05:18:04.622Z,8.53
2018-05-06T05:20:34.009Z,5.80
2018-05-06T05:23:03.630Z,6.07
2018-05-06T05:25:33.254Z,9.37
2018-05-06T05:28:02.944Z,8.90
2018-05-06T05:30:32.804Z,6.63
2018-05-06T05:33:02.456Z,5.47
2018-05-06T05:35:32.070Z,7.57
2018-05-06T05:38:01.715Z,9.73
2018-05-06T05:40:31.380Z,6.07
2018-05-06T05:43:01.012Z,6.27
2018-05-06T05:45:30.407Z,6.67
2018-05-06T05:48:00.040Z,6.70
2018-05-06T05:50:29.663Z,6.80
2018-05-06T05:52:59.340Z,5.13
2018-05-06T05:55:29.298Z,6.37
2018-05-06T05:57:59.091Z,6.47
2018-05-06T06:00:28.476Z,8.00
2018-05-06T06:02:58.086Z,7.30
2018-05-06T06:05:27.755Z,6.53
2018-05-06T06:07:57.159Z,5.70
2018-05-06T06:10:26.770Z,5.13
2018-05-06T06:12:56.387Z,6.57
2018-05-06T06:15:26.013Z,4.77
2018-05-06T06:17:55.674Z,6.43
2018-05-06T06:20:25.302Z,9.70
2018-05-06T06:22:54.939Z,7.03
2018-05-06T06:25:24.559Z,9.03
2018-05-06T06:27:54.196Z,5.17
2018-05-06T06:30:23.914Z,5.13
2018-05-06T06:32:53.615Z,4.00
2018-05-06T06:35:23.413Z,7.10
2018-05-06T06:37:53.044Z,5.43
2018-05-06T06:40:22.772Z,7.87
2018-05-06T06:42:52.451Z,7.07
2018-05-06T06:45:22.103Z,5.30
2018-05-06T06:47:51.781Z,7.23
2018-05-06T06:50:21.415Z,6.53
2018-05-06T06:52:51.040Z,4.87
2018-05-06T06:55:20.435Z,5.80
2018-05-06T06:57:49.827Z,4.80
2018-05-06T07:00:19.488Z,6.63
2018-05-06T07:02:49.112Z,5.03
2018-05-06T07:05:18.747Z,4.03
2018-05-06T07:07:48.392Z,6.83
2018-05-06T07:10:18.019Z,5.97
2018-05-06T07:12:47.691Z,5.37
2018-05-06T07:15:17.652Z,7.18
2018-05-06T07:17:47.885Z,3.47
2018-05-06T07:20:17.814Z,4.47
2018-05-06T07:22:48.048Z,5.60
2018-05-06T07:25:18.394Z,4.37
2018-05-06T07:27:48.604Z,3.85
2018-05-06T07:30:18.883Z,4.90
2018-05-06T07:32:49.088Z,6.65
2018-05-06T07:35:19.371Z,4.87
2018-05-06T07:37:49.569Z,4.37
2018-05-06T07:40:19.801Z,4.55
2018-05-06T07:42:50.032Z,7.87
2018-05-06T07:45:19.664Z,3.08
2018-05-06T07:47:49.405Z,7.07
2018-05-06T07:50:19.048Z,6.93
2018-05-06T07:52:50.671Z,4.53
2018-05-06T07:55:22.383Z,3.65
2018-05-06T07:57:52.649Z,4.20
2018-05-06T08:00:23.022Z,4.95
2018-05-06T08:02:53.275Z,4.07
2018-05-06T08:05:23.479Z,4.40
2018-05-06T08:07:53.707Z,3.30
2018-05-06T08:10:23.914Z,3.20
2018-05-06T08:12:53.846Z,6.18
2018-05-06T08:15:24.090Z,4.85
2018-05-06T08:17:54.306Z,6.57
2018-05-06T08:20:24.546Z,3.15
2018-05-06T08:22:54.759Z,4.40
2018-05-06T08:25:25.128Z,3.08
2018-05-06T08:27:55.367Z,6.28
2018-05-06T08:30:25.557Z,2.78
2018-05-06T08:32:55.532Z,3.00
2018-05-06T08:35:25.786Z,4.32
2018-05-06T08:37:55.997Z,2.58
2018-05-06T08:40:26.252Z,5.22
2018-05-06T08:42:56.661Z,4.30
2018-05-06T08:45:26.900Z,2.92
2018-05-06T08:47:57.102Z,5.70
2018-05-06T08:52:51.912Z,5.30
2018-05-06T08:55:22.110Z,4.25
2018-05-06T08:57:52.352Z,5.70
2018-05-06T09:00:22.590Z,6.03
2018-05-06T09:02:53.069Z,4.60
2018-05-06T09:05:23.279Z,4.14
2018-05-06T09:07:52.942Z,7.20
2018-05-06T09:10:22.228Z,6.27
2018-05-06T09:12:51.843Z,5.37
2018-05-06T09:15:21.499Z,5.03
2018-05-06T09:17:51.120Z,4.70
2018-05-06T09:20:20.739Z,6.87
2018-05-06T09:22:50.377Z,7.20
2018-05-06T09:25:20.216Z,5.30
2018-05-06T09:27:49.931Z,5.17
2018-05-06T09:30:19.556Z,3.60
2018-05-06T09:32:49.190Z,4.20
2018-05-06T09:35:18.853Z,3.80
2018-05-06T09:37:48.546Z,5.77
2018-05-06T09:40:18.360Z,5.30
2018-05-06T09:42:47.990Z,4.17
2018-05-06T09:45:17.640Z,6.53
2018-05-06T09:47:47.324Z,5.07
2018-05-06T09:50:17.156Z,6.53
2018-05-06T09:52:46.819Z,2.60
2018-05-06T09:55:16.449Z,5.13
2018-05-06T09:57:45.802Z,5.03
2018-05-06T10:00:15.414Z,5.03
2018-05-06T10:02:45.039Z,3.43
2018-05-06T10:05:14.698Z,3.27
2018-05-06T10:07:44.327Z,4.47
2018-05-06T10:10:13.991Z,4.27
2018-05-06T10:12:43.615Z,4.30
2018-05-06T10:15:13.230Z,3.10
2018-05-06T10:17:42.912Z,4.33
2018-05-06T10:20:12.565Z,3.17
2018-05-06T10:22:42.181Z,3.43
2018-05-06T10:25:11.811Z,4.30
2018-05-06T10:27:41.456Z,4.00
2018-05-06T10:30:11.989Z,3.80
2018-05-06T10:32:41.613Z,3.13
2018-05-06T10:35:11.251Z,3.20
2018-05-06T10:37:40.899Z,5.40
2018-05-06T10:40:10.526Z,3.57
2018-05-06T10:42:40.204Z,4.50
2018-05-06T10:45:09.840Z,3.23
2018-05-06T10:47:39.476Z,3.33
2018-05-06T10:50:09.120Z,3.97
2018-05-06T10:52:38.984Z,3.17
2018-05-06T10:55:08.648Z,3.83
2018-05-06T10:57:38.400Z,3.13
2018-05-06T11:00:08.041Z,4.10
2018-05-06T11:02:37.672Z,3.00
2018-05-06T11:05:07.318Z,6.50
2018-05-06T11:07:37.030Z,3.93
2018-05-06T11:10:06.736Z,4.90
2018-05-06T11:12:36.608Z,4.57
2018-05-06T11:15:06.264Z,6.17
2018-05-06T11:17:35.896Z,4.57
2018-05-06T11:20:05.579Z,2.60
2018-05-06T11:22:35.210Z,3.73
2018-05-06T11:25:04.857Z,4.73
2018-05-06T11:27:34.541Z,4.60
2018-05-06T11:30:03.594Z,6.20
2018-05-06T11:32:33.259Z,4.33
2018-05-06T11:35:03.395Z,6.83
2018-05-06T11:37:33.050Z,3.13
2018-05-06T11:40:02.720Z,6.83
2018-05-06T11:42:32.371Z,3.50
2018-05-06T11:45:02.020Z,3.53
2018-05-06T11:47:31.692Z,3.70
2018-05-06T11:50:01.362Z,3.60
2018-05-06T11:52:30.990Z,2.77
2018-05-06T11:55:00.642Z,4.77
2018-05-06T11:57:30.438Z,2.13
2018-05-06T12:00:00.070Z,6.13
2018-05-06T12:02:29.779Z,4.47
2018-05-06T12:04:59.471Z,5.17
2018-05-06T12:07:29.115Z,3.67
2018-05-06T12:09:58.842Z,2.73
2018-05-06T12:12:28.847Z,3.77
2018-05-06T12:14:58.527Z,5.23
2018-05-06T12:17:28.171Z,3.83
2018-05-06T12:19:57.796Z,2.00
2018-05-06T12:22:27.435Z,1.80
2018-05-06T12:24:57.093Z,5.57
2018-05-06T12:27:26.761Z,3.07
2018-05-06T12:29:56.392Z,1.83
2018-05-06T12:32:26.032Z,4.57
2018-05-06T12:34:55.660Z,4.10
2018-05-06T12:37:25.289Z,2.10
2018-05-06T12:39:54.958Z,2.80
2018-05-06T12:42:24.361Z,3.27
2018-05-06T12:44:53.998Z,3.73
2018-05-06T12:47:23.386Z,3.17
2018-05-06T12:49:53.012Z,6.63
2018-05-06T12:52:22.680Z,3.70
2018-05-06T12:54:52.305Z,4.60
2018-05-06T12:57:21.941Z,2.73
2018-05-06T12:59:51.566Z,3.63
2018-05-06T13:02:21.281Z,3.33
2018-05-06T13:04:51.109Z,1.93
2018-05-06T13:07:20.748Z,3.67
2018-05-06T13:09:50.396Z,3.73
2018-05-06T13:12:20.024Z,3.23
2018-05-06T13:14:49.652Z,3.67
2018-05-06T13:17:19.329Z,2.83
2018-05-06T13:19:48.949Z,3.70
2018-05-06T13:22:18.588Z,3.17
2018-05-06T13:24:48.284Z,3.07
2018-05-06T13:27:17.908Z,3.60
2018-05-06T13:29:47.623Z,3.33
2018-05-06T13:32:17.247Z,2.23
2018-05-06T13:34:46.868Z,3.57
2018-05-06T13:37:16.286Z,2.73
2018-05-06T13:39:45.914Z,2.97
2018-05-06T13:42:15.632Z,3.17
2018-05-06T13:44:45.274Z,3.27
2018-05-06T13:47:14.667Z,1.97
2018-05-06T13:49:44.337Z,5.60
2018-05-06T13:52:14.145Z,5.23
2018-05-06T13:54:43.825Z,1.47
2018-05-06T13:57:13.209Z,2.03
2018-05-06T13:59:42.853Z,2.63
2018-05-06T14:02:12.483Z,3.43
2018-05-06T14:04:42.111Z,1.53
2018-05-06T14:07:11.802Z,2.93
2018-05-06T14:09:41.671Z,1.50
2018-05-06T14:12:11.316Z,1.57
2018-05-06T14:14:40.934Z,2.90
2018-05-06T14:17:10.565Z,2.77
2018-05-06T14:19:40.227Z,3.10
2018-05-06T14:22:09.847Z,2.13
2018-05-06T14:24:39.190Z,2.47
2018-05-06T14:27:08.497Z,3.23
2018-05-06T14:29:38.119Z,2.40
2018-05-06T14:32:07.782Z,2.97
2018-05-06T14:34:37.175Z,3.33
2018-05-06T14:37:06.557Z,3.87
2018-05-06T14:39:36.392Z,1.73
2018-05-06T14:42:06.215Z,3.53
2018-05-06T14:44:35.886Z,2.40
2018-05-06T14:47:16.489Z,4.27
2018-05-06T14:49:45.885Z,2.77
2018-05-06T14:52:15.524Z,1.60
2018-05-06T14:54:45.185Z,6.07
2018-05-06T14:57:14.810Z,3.17
2018-05-06T14:59:44.629Z,2.50
2018-05-06T15:02:14.467Z,2.33
2018-05-06T15:04:44.087Z,2.50
2018-05-06T15:07:13.754Z,3.23
2018-05-06T15:09:43.378Z,3.57
2018-05-06T15:12:15.846Z,1.97
2018-05-06T15:14:45.505Z,3.47
2018-05-06T15:17:15.148Z,4.87
2018-05-06T15:19:44.789Z,10.17
2018-05-06T15:22:14.410Z,3.60
2018-05-06T15:24:44.030Z,3.63
2018-05-06T15:27:13.709Z,3.57
2018-05-06T15:29:42.391Z,4.20
2018-05-06T15:32:11.783Z,3.47
2018-05-06T15:34:41.413Z,2.70
2018-05-06T15:37:11.044Z,2.83
2018-05-06T15:39:40.719Z,3.23
2018-05-06T15:42:10.348Z,3.60
2018-05-06T15:44:40.017Z,3.33
2018-05-06T15:47:09.634Z,3.30
2018-05-06T15:49:39.256Z,3.73
2018-05-06T15:52:08.890Z,5.33
2018-05-06T15:54:38.517Z,5.10
2018-05-06T15:57:08.175Z,3.00
2018-05-06T15:59:37.809Z,2.97
2018-05-06T16:05:21.120Z,3.13
2018-05-06T16:07:50.813Z,3.17
2018-05-06T16:10:20.458Z,3.87
2018-05-06T16:12:49.760Z,2.97
2018-05-06T16:15:19.163Z,3.27
2018-05-06T16:17:48.596Z,3.60
2018-05-06T16:20:18.467Z,3.07
2018-05-06T16:22:48.114Z,5.67
2018-05-06T16:25:17.768Z,3.73
2018-05-06T16:27:47.404Z,6.77
2018-05-06T16:30:17.057Z,6.80
2018-05-06T16:32:46.732Z,4.87
2018-05-06T16:35:16.388Z,2.83
2018-05-06T16:37:46.061Z,2.53
2018-05-06T16:40:15.680Z,3.93
2018-05-06T16:42:45.069Z,2.77
2018-05-06T16:45:14.510Z,2.93
2018-05-06T16:47:44.140Z,2.93
2018-05-06T16:50:13.778Z,2.77
2018-05-06T16:52:43.531Z,3.10
2018-05-06T16:55:13.313Z,4.07
2018-05-06T16:57:42.980Z,3.60
2018-05-06T17:00:12.600Z,3.90
2018-05-06T17:02:42.240Z,3.17
2018-05-06T17:05:11.855Z,5.97
2018-05-06T17:07:41.480Z,4.17
2018-05-06T17:10:11.305Z,3.83
2018-05-06T17:12:40.963Z,4.83
2018-05-06T17:15:10.650Z,4.43
2018-05-06T17:17:40.326Z,5.30
2018-05-06T17:20:12.566Z,8.73
2018-05-06T17:22:42.229Z,6.60
2018-05-06T17:25:11.846Z,5.97
2018-05-06T17:27:41.327Z,5.13
2018-05-06T17:30:11.020Z,4.97
2018-05-06T17:32:40.643Z,4.00
2018-05-06T17:35:09.992Z,4.70
2018-05-06T17:37:39.623Z,4.43
2018-05-06T17:40:09.237Z,5.70
2018-05-06T17:42:38.880Z,4.70
2018-05-06T17:45:08.542Z,2.87
2018-05-06T17:47:38.239Z,4.70
2018-05-06T17:50:07.881Z,4.00
2018-05-06T17:52:37.314Z,3.50
2018-05-06T17:55:06.990Z,6.13
2018-05-06T17:57:36.619Z,3.17
2018-05-06T18:00:07.123Z,5.00
2018-05-06T18:02:36.755Z,3.30
2018-05-06T18:05:06.414Z,3.33
2018-05-06T18:07:36.129Z,4.13
2018-05-06T18:10:05.590Z,6.23
2018-05-06T18:12:35.030Z,5.57
2018-05-06T18:15:04.465Z,2.87
2018-05-06T18:17:34.109Z,4.50
2018-05-06T18:20:03.753Z,3.37
2018-05-06T18:22:33.429Z,4.77
2018-05-06T18:25:03.302Z,7.73
2018-05-06T18:27:32.947Z,5.60
2018-05-06T18:30:02.349Z,5.60
2018-05-06T18:32:31.980Z,5.20
2018-05-06T18:35:01.595Z,5.23
2018-05-06T18:37:31.294Z,5.50
2018-05-06T18:40:00.705Z,6.43
2018-05-06T18:42:32.775Z,4.97
2018-05-06T18:45:02.414Z,5.60
2018-05-06T18:47:32.045Z,5.90
2018-05-06T18:50:01.697Z,4.93
2018-05-06T18:52:31.328Z,7.43
2018-05-06T18:55:00.990Z,5.93
2018-05-06T18:57:30.643Z,7.03
2018-05-06T19:00:00.316Z,8.27
2018-05-06T19:02:29.949Z,8.63
2018-05-06T19:04:59.573Z,8.67
2018-05-06T19:07:28.972Z,6.30
2018-05-06T19:09:58.609Z,7.40
2018-05-06T19:12:28.260Z,8.80
2018-05-06T19:14:57.900Z,9.77
2018-05-06T19:17:27.545Z,10.60
2018-05-06T19:19:57.223Z,7.10
2018-05-06T19:22:26.874Z,8.73
2018-05-06T19:24:56.498Z,16.07
2018-05-06T19:27:26.116Z,11.93
2018-05-06T19:29:55.737Z,12.30
2018-05-06T19:32:25.408Z,14.17
2018-05-06T19:34:55.057Z,10.27
2018-05-06T19:37:24.404Z,12.43
2018-05-06T19:39:54.036Z,10.80
2018-05-06T19:42:23.392Z,12.97
2018-05-06T19:44:53.073Z,12.47
2018-05-06T19:47:22.711Z,10.27
2018-05-06T19:49:52.343Z,9.30
2018-05-06T19:52:21.984Z,9.90
2018-05-06T19:54:51.336Z,9.80
2018-05-06T19:57:20.998Z,12.23
2018-05-06T19:59:50.651Z,10.73
2018-05-06T20:02:20.276Z,7.67
2018-05-06T20:04:49.890Z,9.17
2018-05-06T20:07:19.580Z,7.50
2018-05-06T20:09:49.416Z,5.83
2018-05-06T20:12:19.067Z,8.67
2018-05-06T20:14:48.698Z,7.77
2018-05-06T20:17:18.332Z,10.90
2018-05-06T20:19:47.960Z,10.23
2018-05-06T20:22:17.647Z,14.23
2018-05-06T20:24:46.994Z,12.13
2018-05-06T20:27:16.356Z,16.40
2018-05-06T20:29:46.036Z,14.43
2018-05-06T20:32:15.679Z,13.27
2018-05-06T20:34:45.032Z,13.97
2018-05-06T20:37:14.376Z,17.30
2018-05-06T20:39:43.762Z,16.93
2018-05-06T20:42:12.784Z,13.93
2018-05-06T20:44:42.155Z,19.00
2018-05-06T20:47:11.822Z,13.97
2018-05-06T20:49:41.180Z,15.07
2018-05-06T20:52:10.527Z,9.43
2018-05-06T20:54:39.880Z,9.67
2018-05-06T20:57:09.505Z,9.60
2018-05-06T20:59:39.035Z,8.43
2018-05-06T21:02:08.444Z,10.90
2018-05-06T21:04:37.819Z,9.73
2018-05-06T21:07:06.956Z,8.40
2018-05-06T21:09:36.595Z,9.40
2018-05-06T21:12:06.222Z,9.93
2018-05-06T21:14:35.846Z,10.00
2018-05-06T21:17:05.194Z,15.07
2018-05-06T21:19:34.820Z,12.80
2018-05-06T21:22:04.451Z,13.73
2018-05-06T21:24:34.076Z,10.23
2018-05-06T21:27:03.775Z,16.10
2018-05-06T21:29:33.448Z,12.53
2018-05-06T21:32:03.276Z,15.27
2018-05-06T21:34:32.939Z,8.17
2018-05-06T21:37:03.549Z,8.83
2018-05-06T21:39:33.419Z,10.07
2018-05-06T21:42:02.770Z,9.63
2018-05-06T21:44:32.412Z,11.20
2018-05-06T21:47:02.084Z,10.77
2018-05-06T21:49:31.889Z,12.27
2018-05-06T21:52:01.258Z,9.57
2018-05-06T21:54:30.979Z,11.10
2018-05-06T21:57:00.744Z,11.07
2018-05-06T21:59:30.407Z,9.67
2018-05-06T22:02:00.040Z,15.00
2018-05-06T22:04:29.699Z,10.17
2018-05-06T22:06:59.051Z,13.30
2018-05-06T22:09:28.203Z,11.60
2018-05-06T22:11:57.594Z,11.20
2018-05-06T22:14:27.233Z,10.17
2018-05-06T22:16:56.573Z,14.83
2018-05-06T22:19:25.954Z,8.67
2018-05-06T22:21:55.296Z,9.10
2018-05-06T22:24:24.998Z,11.20
2018-05-06T22:26:54.361Z,10.77
2018-05-06T22:29:23.994Z,8.47
2018-05-06T22:31:53.352Z,10.80
2018-05-06T22:34:22.992Z,11.33
2018-05-06T22:36:52.379Z,8.57
2018-05-06T22:39:21.724Z,10.47
2018-05-06T22:41:51.090Z,13.17
2018-05-06T22:44:20.461Z,11.07
2018-05-06T22:46:49.816Z,9.03
2018-05-06T22:49:19.219Z,8.73
2018-05-06T22:51:48.335Z,8.97
2018-05-06T22:54:17.829Z,9.47
2018-05-06T22:56:47.183Z,10.27
2018-05-06T22:59:16.586Z,10.40
2018-05-06T23:01:45.977Z,8.40
2018-05-06T23:04:15.613Z,9.80
2018-05-06T23:06:45.280Z,10.93
2018-05-06T23:09:14.913Z,10.63
2018-05-06T23:11:44.539Z,8.87
2018-05-06T23:14:14.158Z,11.60
2018-05-06T23:16:43.778Z,13.10
2018-05-06T23:19:13.472Z,11.17
2018-05-06T23:21:43.190Z,11.87
2018-05-06T23:24:12.653Z,9.20
2018-05-06T23:26:42.319Z,7.77
2018-05-06T23:29:11.628Z,9.60
2018-05-06T23:31:41.076Z,9.57
2018-05-06T23:34:10.744Z,9.07
2018-05-06T23:36:40.393Z,10.10
2018-05-06T23:39:10.022Z,8.13
2018-05-06T23:41:39.638Z,7.73
2018-05-06T23:44:09.299Z,9.47
2018-05-06T23:46:38.914Z,7.97
2018-05-06T23:49:08.823Z,8.90
2018-05-06T23:51:38.481Z,8.87
2018-05-06T23:54:08.142Z,10.97
2018-05-06T23:56:38.028Z,11.27
2018-05-06T23:59:07.666Z,7.63
